Time;durP1;ratioP1;P1;durP2;ratioP2;P2;SDS_P1;SDS_P2;PMS_P1;PMS_P2;Temp;Humidity;BMP_temperature;BMP_pressure;BME280_temperature;BME280_humidity;BME280_pressure;Samples;Min_cycle;Max_cycle;Signal;HPM_P1;HPM_P2
2022/01/31 00:00:02;;;;;;;10.73;3.10;;;;;;;1.50;71.02;96606.75;5067291;28;20407;-74
2022/01/31 00:02:29;;;;;;;11.05;3.38;;;;;;;1.52;71.11;96614.56;5068243;28;20044;-78
2022/01/31 00:04:55;;;;;;;9.55;3.20;;;;;;;1.51;71.16;96602.19;5067325;28;20048;-78
2022/01/31 00:07:22;;;;;;;10.93;3.63;;;;;;;1.60;71.00;96595.31;5067514;28;20049;-79
2022/01/31 00:09:48;;;;;;;11.90;3.58;;;;;;;1.61;70.69;96585.38;5067821;28;20049;-77
2022/01/31 00:12:19;;;;;;;13.60;4.07;;;;;;;1.64;70.54;96580.31;5067149;28;20145;-78
2022/01/31 00:14:48;;;;;;;15.10;4.10;;;;;;;1.69;70.72;96583.03;5067265;28;20624;-77
2022/01/31 00:17:16;;;;;;;14.40;3.70;;;;;;;1.76;70.92;96562.16;5066466;28;20051;-78
2022/01/31 00:19:44;;;;;;;10.70;3.40;;;;;;;1.81;70.66;96558.69;5067269;28;20048;-77
2022/01/31 00:22:13;;;;;;;10.82;3.88;;;;;;;1.87;70.57;96549.59;5067135;28;20044;-78
2022/01/31 00:24:40;;;;;;;11.55;3.42;;;;;;;1.92;70.00;96549.66;5067371;28;20509;-78
2022/01/31 00:27:09;;;;;;;10.77;3.42;;;;;;;1.97;69.90;96546.19;5067511;28;20048;-77
2022/01/31 00:29:37;;;;;;;13.68;3.88;;;;;;;2.07;69.87;96541.69;5067826;28;20516;-79
2022/01/31 00:32:04;;;;;;;17.00;3.08;;;;;;;2.11;69.80;96547.38;5067256;28;20049;-77
2022/01/31 00:34:32;;;;;;;13.02;3.60;;;;;;;2.13;69.96;96541.72;5068306;28;20059;-78
2022/01/31 00:36:59;;;;;;;12.57;3.08;;;;;;;2.16;69.68;96546.59;5071494;28;20166;-78
2022/01/31 00:39:25;;;;;;;10.43;3.65;;;;;;;2.19;69.28;96546.06;5070914;28;20054;-78
2022/01/31 00:41:52;;;;;;;14.20;3.95;;;;;;;2.23;69.28;96542.59;5071582;28;20055;-78
2022/01/31 00:44:23;;;;;;;15.30;3.88;;;;;;;2.25;68.78;96540.47;5070805;28;20080;-78
2022/01/31 00:46:55;;;;;;;12.75;3.33;;;;;;;2.28;68.59;96542.63;5071408;28;20044;-78
2022/01/31 00:49:34;;;;;;;16.17;3.63;;;;;;;2.30;68.84;96535.13;5070993;28;20053;-78
2022/01/31 00:52:02;;;;;;;12.07;3.25;;;;;;;2.30;68.95;96513.63;5071218;28;20310;-78
2022/01/31 00:54:28;;;;;;;8.55;3.47;;;;;;;2.28;68.56;96502.31;5070694;28;20044;-78
2022/01/31 00:56:55;;;;;;;13.80;4.57;;;;;;;2.30;68.87;96502.88;5070716;28;20051;-78
2022/01/31 00:59:22;;;;;;;11.15;3.40;;;;;;;2.30;69.17;96502.88;5070755;28;20145;-78
2022/01/31 01:01:50;;;;;;;10.05;3.28;;;;;;;2.33;68.97;96504.22;5071249;28;20053;-78
2022/01/31 01:04:17;;;;;;;10.80;4.05;;;;;;;2.34;68.61;96477.06;5070185;28;20053;-78
2022/01/31 01:06:43;;;;;;;10.52;3.22;;;;;;;2.32;68.90;96470.38;5070623;28;20510;-78
2022/01/31 01:09:11;;;;;;;10.63;3.20;;;;;;;2.37;69.03;96481.13;5070526;28;20503;-78
2022/01/31 01:11:37;;;;;;;10.73;3.20;;;;;;;2.38;69.08;96479.25;5070776;28;20044;-78
2022/01/31 01:14:04;;;;;;;11.80;3.45;;;;;;;2.37;69.09;96475.75;5069997;28;20052;-78
2022/01/31 01:16:31;;;;;;;15.43;3.85;;;;;;;2.40;69.39;96463.66;5070867;28;20041;-78
2022/01/31 01:18:59;;;;;;;12.23;3.97;;;;;;;2.48;69.27;96461.28;5071090;28;20395;-78
2022/01/31 01:21:25;;;;;;;12.77;3.78;;;;;;;2.54;68.47;96470.16;5070438;28;20054;-78
2022/01/31 01:23:52;;;;;;;13.68;3.55;;;;;;;2.55;68.46;96451.09;5070303;28;20052;-78
2022/01/31 01:26:19;;;;;;;11.88;3.70;;;;;;;2.56;68.67;96463.47;5070059;28;20052;-78
2022/01/31 01:28:46;;;;;;;11.68;3.38;;;;;;;2.54;68.36;96456.72;5070460;28;20377;-78
2022/01/31 01:31:13;;;;;;;14.23;4.15;;;;;;;2.54;68.95;96460.22;5070229;28;20074;-78
2022/01/31 01:33:41;;;;;;;12.13;3.10;;;;;;;2.58;69.04;96457.81;5070415;28;20460;-78
2022/01/31 01:36:09;;;;;;;12.27;3.30;;;;;;;2.56;68.93;96435.78;5069510;28;20123;-78
2022/01/31 01:38:36;;;;;;;10.52;3.70;;;;;;;2.57;68.58;96437.41;5070358;28;20103;-78
2022/01/31 01:41:03;;;;;;;10.02;3.25;;;;;;;2.60;68.53;96434.16;5069822;28;20048;-78
2022/01/31 01:43:31;;;;;;;13.18;3.63;;;;;;;2.64;68.99;96431.75;5070507;28;20072;-78
2022/01/31 01:46:00;;;;;;;8.35;3.40;;;;;;;2.69;68.49;96424.50;5069510;28;20041;-79
2022/01/31 01:48:27;;;;;;;11.68;3.25;;;;;;;2.68;68.21;96401.41;5070405;28;20052;-78
2022/01/31 01:50:55;;;;;;;13.88;3.70;;;;;;;2.70;67.71;96388.47;5070119;28;20056;-78
2022/01/31 01:53:24;;;;;;;14.88;3.92;;;;;;;2.66;68.34;96376.63;5069675;28;20407;-78
2022/01/31 01:55:52;;;;;;;12.43;3.42;;;;;;;2.67;68.03;96356.78;5069792;28;20105;-78
2022/01/31 01:58:19;;;;;;;11.95;3.15;;;;;;;2.65;67.81;96348.16;5069692;28;20048;-78
2022/01/31 02:00:58;;;;;;;13.05;3.40;;;;;;;2.63;67.84;96344.13;5069901;28;20503;-77
2022/01/31 02:03:27;;;;;;;9.70;3.25;;;;;;;2.63;68.03;96339.56;5069444;28;20040;-78
2022/01/31 02:05:54;;;;;;;11.40;3.28;;;;;;;2.65;68.05;96332.00;5069749;28;20049;-78
2022/01/31 02:08:22;;;;;;;11.57;3.15;;;;;;;2.65;68.38;96333.91;5069625;28;20055;-78
2022/01/31 02:10:49;;;;;;;10.63;3.80;;;;;;;2.64;68.15;96326.91;5070186;28;20055;-78
2022/01/31 02:13:16;;;;;;;10.40;3.67;;;;;;;2.61;68.43;96318.31;5069234;28;20415;-78
2022/01/31 02:15:45;;;;;;;14.00;3.88;;;;;;;2.62;68.29;96311.06;5069217;28;20052;-77
2022/01/31 02:18:12;;;;;;;14.25;3.97;;;;;;;2.54;68.76;96308.88;5069161;28;20849;-78
2022/01/31 02:20:42;;;;;;;12.80;3.95;;;;;;;2.50;69.51;96310.50;5069734;28;20044;-78
2022/01/31 02:23:10;;;;;;;10.85;3.42;;;;;;;2.46;69.39;96296.81;5069202;28;20048;-77
2022/01/31 02:25:52;;;;;;;9.18;3.45;;;;;;;2.51;69.40;96285.25;5069076;28;20044;-78
2022/01/31 02:28:19;;;;;;;13.75;3.90;;;;;;;2.54;69.87;96282.00;5069358;28;20052;-79
2022/01/31 02:30:45;;;;;;;13.90;3.33;;;;;;;2.56;69.59;96278.00;5069333;28;20048;-78
2022/01/31 02:33:12;;;;;;;11.48;3.60;;;;;;;2.55;69.26;96259.44;5068877;28;20052;-78
2022/01/31 02:35:38;;;;;;;14.75;3.60;;;;;;;2.51;69.60;96263.75;5069127;28;20052;-78
2022/01/31 02:38:06;;;;;;;16.50;3.97;;;;;;;2.46;69.73;96269.13;5068918;28;20503;-78
2022/01/31 02:40:33;;;;;;;11.05;3.33;;;;;;;2.40;70.03;96251.34;5069378;28;20069;-78
2022/01/31 02:43:00;;;;;;;14.20;3.60;;;;;;;2.42;70.20;96251.91;5068941;28;20048;-78
2022/01/31 02:45:26;;;;;;;12.63;3.25;;;;;;;2.37;70.06;96249.22;5068494;28;20040;-78
2022/01/31 02:47:55;;;;;;;12.00;3.63;;;;;;;2.39;70.39;96241.69;5068826;28;20499;-78
2022/01/31 02:50:22;;;;;;;10.02;3.30;;;;;;;2.33;70.30;96238.19;5068794;28;20700;-78
2022/01/31 02:52:57;;;;;;;17.15;3.42;;;;;;;2.28;70.78;96236.31;5068661;28;20442;-77
2022/01/31 02:55:25;;;;;;;13.32;3.28;;;;;;;2.27;70.97;96223.16;5068235;28;20526;-78
2022/01/31 02:57:51;;;;;;;9.90;3.35;;;;;;;2.21;71.35;96227.72;5067996;28;20045;-78
2022/01/31 03:00:18;;;;;;;13.38;4.07;;;;;;;2.16;71.44;96225.03;5068399;28;20048;-78
2022/01/31 03:02:44;;;;;;;16.88;3.85;;;;;;;2.14;71.74;96220.97;5068838;28;20044;-78
2022/01/31 03:05:11;;;;;;;15.27;3.83;;;;;;;2.12;72.20;96217.75;5067761;28;20051;-78
2022/01/31 03:07:37;;;;;;;12.23;3.72;;;;;;;2.11;72.21;96213.47;5068662;28;20045;-78
2022/01/31 03:10:04;;;;;;;12.38;3.30;;;;;;;2.06;72.32;96200.84;5068367;28;20047;-78
2022/01/31 03:12:32;;;;;;;10.13;3.25;;;;;;;2.04;72.42;96193.06;5068301;28;20037;-78
2022/01/31 03:14:59;;;;;;;10.82;3.42;;;;;;;2.03;72.26;96169.94;5068151;28;20048;-77
2022/01/31 03:17:25;;;;;;;11.30;3.58;;;;;;;2.03;72.40;96155.72;5067971;28;20047;-78
2022/01/31 03:19:54;;;;;;;12.20;3.83;;;;;;;2.05;72.46;96137.47;5068344;28;20065;-78
2022/01/31 03:22:22;;;;;;;10.20;3.60;;;;;;;2.06;72.01;96147.13;5067942;28;20624;-78
2022/01/31 03:24:49;;;;;;;9.25;3.63;;;;;;;2.06;71.99;96157.88;5067963;28;20177;-78
2022/01/31 03:27:15;;;;;;;12.15;4.03;;;;;;;2.06;72.37;96157.88;5067651;28;20137;-78
2022/01/31 03:29:43;;;;;;;10.98;4.22;;;;;;;2.03;72.72;96163.75;5068313;28;20041;-78
2022/01/31 03:32:10;;;;;;;12.98;4.03;;;;;;;2.02;72.74;96162.16;5067471;28;20047;-78
2022/01/31 03:34:36;;;;;;;10.45;3.65;;;;;;;2.03;72.94;96153.81;5067810;28;20510;-78
2022/01/31 03:37:03;;;;;;;12.77;3.80;;;;;;;2.03;72.46;96147.66;5067555;28;20048;-77
2022/01/31 03:39:30;;;;;;;12.18;3.80;;;;;;;2.06;72.63;96139.06;5068248;28;20048;-78
2022/01/31 03:41:56;;;;;;;10.50;3.33;;;;;;;2.07;72.75;96119.97;5068276;28;20047;-78
2022/01/31 03:44:23;;;;;;;19.02;3.78;;;;;;;2.08;72.49;96115.41;5065383;28;20532;-78
2022/01/31 03:46:51;;;;;;;7.60;3.25;;;;;;;2.05;72.61;96107.91;5067908;28;20044;-78
2022/01/31 03:49:17;;;;;;;13.88;3.30;;;;;;;2.04;72.69;96117.06;5067575;28;20053;-78
2022/01/31 03:51:44;;;;;;;10.98;3.58;;;;;;;2.09;73.03;96098.25;5067947;28;20045;-77
2022/01/31 03:54:10;;;;;;;12.75;3.65;;;;;;;2.15;72.48;96081.03;5062035;28;20407;-79
2022/01/31 03:56:37;;;;;;;15.57;4.03;;;;;;;2.15;72.00;96056.06;5047954;28;20052;-78
2022/01/31 03:59:04;;;;;;;11.07;3.63;;;;;;;2.10;72.48;96062.25;5047409;28;20048;-78
2022/01/31 04:01:30;;;;;;;10.48;3.70;;;;;;;2.05;72.49;96064.94;5047612;28;20063;-78
2022/01/31 04:03:58;;;;;;;9.38;3.72;;;;;;;2.06;72.37;96061.19;5047218;28;20060;-78
2022/01/31 04:06:25;;;;;;;12.82;3.45;;;;;;;2.06;72.55;96028.94;5046972;28;20061;-78
2022/01/31 04:08:51;;;;;;;11.50;3.17;;;;;;;2.09;72.42;96020.38;5047166;28;20056;-78
2022/01/31 04:11:18;;;;;;;10.77;3.70;;;;;;;2.01;72.60;96013.66;5047081;28;20053;-78
2022/01/31 04:13:45;;;;;;;10.93;3.80;;;;;;;1.96;72.85;96023.59;5049131;28;20468;-77
2022/01/31 04:16:11;;;;;;;15.63;4.32;;;;;;;1.94;73.01;96015.00;5066712;28;20052;-78
2022/01/31 04:18:38;;;;;;;14.10;3.40;;;;;;;1.95;73.13;96005.88;5067580;28;20045;-77
2022/01/31 04:21:05;;;;;;;9.98;3.35;;;;;;;1.89;73.53;96006.97;5066771;28;20127;-78
2022/01/31 04:23:32;;;;;;;11.18;3.55;;;;;;;1.84;73.59;95997.03;5067545;28;20040;-77
2022/01/31 04:26:07;;;;;;;14.77;3.47;;;;;;;1.86;73.65;96012.88;5067478;28;20045;-78
2022/01/31 04:28:41;;;;;;;14.90;3.70;;;;;;;1.89;73.53;95991.66;5065651;28;20047;-78
2022/01/31 04:31:15;;;;;;;13.65;3.58;;;;;;;1.87;73.68;95955.41;5067084;28;20051;-77
2022/01/31 04:33:43;;;;;;;12.75;3.65;;;;;;;1.83;74.19;95963.22;5067392;28;20045;-78
2022/01/31 04:36:14;;;;;;;10.60;3.50;;;;;;;1.86;74.11;95967.22;5066676;28;20044;-78
2022/01/31 04:38:40;;;;;;;11.77;3.60;;;;;;;1.87;73.86;95963.47;5067504;28;20052;-77
2022/01/31 04:41:07;;;;;;;14.05;4.28;;;;;;;1.88;73.85;95962.38;5067161;28;20041;-77
2022/01/31 04:43:33;;;;;;;18.80;4.75;;;;;;;1.90;73.74;95960.25;5067103;28;20049;-78
2022/01/31 04:46:02;;;;;;;8.88;3.30;;;;;;;1.90;74.17;95944.94;5067142;28;20044;-78
2022/01/31 04:48:29;;;;;;;12.35;3.80;;;;;;;1.95;73.84;95914.59;5067386;28;20050;-79
2022/01/31 04:50:56;;;;;;;13.93;3.90;;;;;;;2.00;73.92;95906.50;5067339;28;20067;-77
2022/01/31 04:53:24;;;;;;;16.30;3.97;;;;;;;2.07;73.92;95890.91;5066749;28;20809;-78
2022/01/31 04:55:51;;;;;;;9.85;3.83;;;;;;;2.00;73.67;95885.03;5066895;28;20052;-78
2022/01/31 04:58:19;;;;;;;14.13;3.40;;;;;;;2.04;73.90;95889.56;5066760;28;20427;-77
2022/01/31 05:00:45;;;;;;;12.10;3.58;;;;;;;2.04;73.89;95875.34;5067327;28;20068;-78
2022/01/31 05:03:14;;;;;;;12.77;3.30;;;;;;;2.00;74.09;95901.13;5066884;28;20052;-77
2022/01/31 05:05:41;;;;;;;12.65;3.67;;;;;;;1.96;74.10;95894.69;5067071;28;20075;-78
2022/01/31 05:08:09;;;;;;;10.88;3.67;;;;;;;1.97;73.85;95902.47;5066561;28;20067;-77
2022/01/31 05:10:43;;;;;;;9.63;2.97;;;;;;;1.96;73.98;95900.06;5067350;28;20072;-78
2022/01/31 05:13:11;;;;;;;9.02;3.13;;;;;;;2.00;74.00;95898.44;5066233;28;20067;-78
2022/01/31 05:15:37;;;;;;;11.63;3.25;;;;;;;2.05;74.12;95887.69;5066641;28;20045;-77
2022/01/31 05:18:04;;;;;;;14.88;3.33;;;;;;;2.06;73.93;95871.28;5066767;28;20045;-77
2022/01/31 05:20:31;;;;;;;11.40;3.72;;;;;;;2.07;74.15;95869.41;5068097;28;20048;-78
2022/01/31 05:22:57;;;;;;;10.00;3.60;;;;;;;2.07;73.91;95869.41;5070748;28;20067;-78
2022/01/31 05:25:24;;;;;;;13.38;3.58;;;;;;;2.05;74.06;95866.22;5069750;28;20048;-78
2022/01/31 05:27:52;;;;;;;11.70;4.00;;;;;;;2.09;73.96;95859.22;5070396;28;20052;-78
2022/01/31 05:30:20;;;;;;;15.80;3.67;;;;;;;2.11;74.05;95854.34;5070023;28;20045;-78
2022/01/31 05:32:47;;;;;;;7.93;2.97;;;;;;;2.13;74.21;95859.44;5070646;28;20060;-78
2022/01/31 05:35:13;;;;;;;12.07;3.25;;;;;;;2.10;74.02;95855.44;5069683;28;20075;-78
2022/01/31 05:37:40;;;;;;;14.48;3.10;;;;;;;2.13;74.34;95854.88;5070453;28;20138;-78
2022/01/31 05:40:08;;;;;;;13.25;4.03;;;;;;;2.18;74.23;95854.84;5069827;28;20049;-78
2022/01/31 05:42:34;;;;;;;9.60;3.10;;;;;;;2.17;74.15;95853.25;5070306;28;20526;-78
2022/01/31 05:45:03;;;;;;;11.77;3.38;;;;;;;2.21;74.03;95853.50;5069678;28;20048;-78
2022/01/31 05:47:29;;;;;;;15.15;3.78;;;;;;;2.23;74.52;95849.44;5069875;28;20036;-78
2022/01/31 05:49:56;;;;;;;9.02;3.17;;;;;;;2.28;74.17;95854.00;5070242;28;20044;-78
2022/01/31 05:52:22;;;;;;;11.98;3.25;;;;;;;2.27;74.15;95828.22;5069749;28;20044;-78
2022/01/31 05:54:49;;;;;;;10.73;3.53;;;;;;;2.24;74.05;95843.00;5069520;28;20055;-78
2022/01/31 05:57:16;;;;;;;11.63;3.55;;;;;;;2.22;74.33;95845.16;5069395;28;20060;-78
2022/01/31 05:59:43;;;;;;;14.90;3.97;;;;;;;2.18;74.71;95843.31;5070137;28;20059;-77
2022/01/31 06:02:11;;;;;;;11.85;3.70;;;;;;;2.13;74.86;95846.00;5069530;28;20048;-77
2022/01/31 06:04:37;;;;;;;18.65;3.97;;;;;;;2.14;75.37;95828.81;5069586;28;20055;-78
2022/01/31 06:07:04;;;;;;;9.32;3.97;;;;;;;2.09;75.61;95824.28;5069145;28;20415;-79
2022/01/31 06:09:32;;;;;;;11.82;4.03;;;;;;;2.11;75.72;95822.13;5069987;28;20048;-77
2022/01/31 06:12:01;;;;;;;11.15;3.80;;;;;;;2.05;76.23;95818.66;5069446;28;20049;-78
2022/01/31 06:14:28;;;;;;;11.40;4.15;;;;;;;1.97;76.64;95818.44;5068788;28;20044;-77
2022/01/31 06:16:54;;;;;;;14.57;4.03;;;;;;;1.96;76.95;95820.31;5069304;28;20419;-77
2022/01/31 06:19:22;;;;;;;12.20;4.53;;;;;;;1.94;77.09;95827.84;5068881;28;20060;-78
2022/01/31 06:21:49;;;;;;;11.02;4.97;;;;;;;1.96;77.52;95816.84;5069650;28;20041;-77
2022/01/31 06:24:15;;;;;;;9.27;4.43;;;;;;;1.93;77.34;95806.63;5068965;28;20040;-77
2022/01/31 06:26:42;;;;;;;12.10;5.32;;;;;;;1.90;77.75;95783.03;5069247;28;20037;-77
2022/01/31 06:29:09;;;;;;;13.68;4.65;;;;;;;1.86;77.85;95760.50;5068992;28;20131;-77
2022/01/31 06:31:36;;;;;;;12.52;4.95;;;;;;;1.91;77.90;95768.53;5069295;28;20055;-78
2022/01/31 06:34:03;;;;;;;13.75;4.88;;;;;;;1.88;78.03;95769.06;5056870;28;20041;-76
2022/01/31 06:36:31;;;;;;;12.32;5.53;;;;;;;1.90;77.98;95750.81;5049072;28;20687;-77
2022/01/31 06:38:58;;;;;;;19.02;5.72;;;;;;;1.88;78.16;95759.16;5049460;28;20040;-77
2022/01/31 06:41:25;;;;;;;11.13;4.57;;;;;;;1.85;78.03;95753.53;5049037;28;20047;-77
2022/01/31 06:43:52;;;;;;;13.82;5.03;;;;;;;1.82;78.13;95749.50;5051919;28;20047;-77
2022/01/31 06:46:18;;;;;;;13.73;4.75;;;;;;;1.81;78.35;95754.06;5068306;28;20052;-77
2022/01/31 06:48:45;;;;;;;12.63;5.30;;;;;;;1.85;78.48;95748.16;5069207;28;20052;-77
2022/01/31 06:51:12;;;;;;;13.93;5.00;;;;;;;1.85;78.00;95742.78;5068554;28;20045;-77
2022/01/31 06:53:41;;;;;;;11.07;4.43;;;;;;;1.82;78.05;95752.19;5068941;28;20471;-76
2022/01/31 06:56:07;;;;;;;8.35;4.72;;;;;;;1.86;77.98;95730.97;5068078;28;20106;-76
2022/01/31 06:58:34;;;;;;;11.55;4.55;;;;;;;1.87;78.00;95729.88;5068733;28;20044;-76
2022/01/31 07:01:00;;;;;;;12.93;4.70;;;;;;;1.93;77.36;95723.41;5068760;28;20053;-77
2022/01/31 07:03:27;;;;;;;8.40;4.32;;;;;;;1.92;77.00;95716.44;5068320;28;20044;-77
2022/01/31 07:05:53;;;;;;;10.35;4.53;;;;;;;1.95;76.13;95705.94;5068643;28;20048;-77
2022/01/31 07:08:19;;;;;;;11.30;4.38;;;;;;;1.96;76.34;95696.00;5068469;28;20079;-77
2022/01/31 07:10:51;;;;;;;13.50;4.47;;;;;;;2.01;76.11;95698.66;5068870;28;20044;-76
2022/01/31 07:13:35;;;;;;;11.70;4.38;;;;;;;2.02;76.19;95690.31;5068141;28;20194;-76
2022/01/31 07:16:01;;;;;;;;;;;;;;;2.07;75.65;95676.03;5068332;28;20045;-77
2022/01/31 07:18:27;;;;;;;10.23;4.07;;;;;;;2.12;74.55;95662.56;5068822;28;19925;-77
2022/01/31 07:20:55;;;;;;;8.45;3.75;;;;;;;2.15;73.75;95667.41;5068559;28;20059;-76
2022/01/31 07:23:26;;;;;;;8.27;3.63;;;;;;;2.22;73.04;95673.25;5068123;28;20091;-76
2022/01/31 07:25:54;;;;;;;7.85;3.17;;;;;;;2.28;72.81;95672.09;5068201;28;20051;-79
2022/01/31 07:28:21;;;;;;;9.82;3.88;;;;;;;2.33;72.37;95653.25;5067923;28;20059;-78
2022/01/31 07:30:49;;;;;;;9.57;3.67;;;;;;;2.37;71.53;95639.28;5068271;28;20055;-78
2022/01/31 07:33:16;;;;;;;13.25;2.67;;;;;;;2.43;70.54;95622.00;5067644;28;20045;-78
2022/01/31 07:35:46;;;;;;;8.85;2.97;;;;;;;2.49;69.74;95623.56;5067980;28;20040;-78
2022/01/31 07:38:12;;;;;;;7.00;2.92;;;;;;;2.52;69.74;95617.63;5067784;28;20048;-78
2022/01/31 07:40:39;;;;;;;9.18;3.15;;;;;;;2.53;69.13;95616.53;5068645;28;20049;-78
2022/01/31 07:43:07;;;;;;;8.13;2.45;;;;;;;2.56;69.13;95607.91;5067334;28;20048;-77
2022/01/31 07:45:33;;;;;;;8.30;2.88;;;;;;;2.59;69.00;95601.94;5067478;28;20059;-77
2022/01/31 07:48:00;;;;;;;13.63;2.65;;;;;;;2.60;68.77;95595.50;5067771;28;20040;-77
2022/01/31 07:50:30;;;;;;;7.25;2.50;;;;;;;2.57;68.89;95588.81;5067727;28;20431;-77
2022/01/31 07:52:56;;;;;;;10.32;2.65;;;;;;;2.64;68.95;95593.03;5068026;28;20101;-78
2022/01/31 07:55:23;;;;;;;5.97;2.15;;;;;;;2.63;69.35;95583.38;5051268;28;20045;-78
2022/01/31 07:57:49;;;;;;;7.53;2.22;;;;;;;2.67;69.55;95579.84;5067071;28;20526;-77
2022/01/31 08:00:18;;;;;;;13.65;3.03;;;;;;;2.72;69.48;95568.22;5067463;28;20055;-77
2022/01/31 08:02:45;;;;;;;8.35;2.83;;;;;;;2.81;69.54;95555.72;5067708;28;20051;-80
2022/01/31 08:05:11;;;;;;;7.82;2.45;;;;;;;2.81;69.64;95540.38;5066559;28;20402;-79
2022/01/31 08:07:38;;;;;;;7.88;2.72;;;;;;;2.83;70.01;95538.22;5067723;28;20829;-79
2022/01/31 08:10:06;;;;;;;10.45;2.83;;;;;;;2.86;70.31;95542.22;5066677;28;20055;-79
2022/01/31 08:12:35;;;;;;;9.77;2.33;;;;;;;2.89;70.58;95536.28;5067194;28;20089;-81
2022/01/31 08:15:06;;;;;;;6.50;2.05;;;;;;;2.93;70.89;95544.56;5066128;28;20419;-81
2022/01/31 08:17:34;;;;;;;8.43;2.42;;;;;;;2.88;71.31;95522.03;5068372;28;20631;-82
2022/01/31 08:20:02;;;;;;;7.85;2.15;;;;;;;2.95;71.41;95518.19;5070414;28;20052;-81
2022/01/31 08:22:29;;;;;;;7.95;2.00;;;;;;;3.02;71.57;95532.06;5067695;28;20037;-78
2022/01/31 08:24:55;;;;;;;6.00;2.42;;;;;;;2.99;72.05;95519.22;5066843;28;20044;-78
2022/01/31 08:27:22;;;;;;;8.60;2.50;;;;;;;2.99;72.63;95528.06;5066962;28;20055;-78
2022/01/31 08:29:49;;;;;;;9.93;2.75;;;;;;;3.00;72.82;95526.19;5066910;28;20061;-77
2022/01/31 08:32:21;;;;;;;7.40;2.20;;;;;;;2.98;73.21;95523.00;5066887;28;20106;-79
2022/01/31 08:37:33;;;;;;;6.78;2.33;;;;;;;2.83;75.54;95522.09;5066873;28;20086;-79
2022/01/31 08:40:00;;;;;;;12.40;2.72;;;;;;;2.80;76.28;95528.03;5067424;28;20048;-79
2022/01/31 08:42:28;;;;;;;7.78;2.67;;;;;;;2.80;76.80;95524.56;5066881;28;20051;-79
2022/01/31 08:44:54;;;;;;;7.90;2.65;;;;;;;2.76;76.98;95520.84;5066209;28;20114;-79
2022/01/31 08:47:21;;;;;;;6.72;2.63;;;;;;;2.72;77.64;95512.56;5067010;28;20427;-81
2022/01/31 08:49:49;;;;;;;5.78;2.50;;;;;;;2.67;78.71;95504.56;5067112;28;20049;-78
2022/01/31 08:52:15;;;;;;;5.30;2.65;;;;;;;2.61;79.80;95503.84;5066509;28;20041;-80
2022/01/31 08:54:42;;;;;;;8.48;3.17;;;;;;;2.55;80.77;95504.16;5066924;28;20052;-81
2022/01/31 08:57:09;;;;;;;11.00;3.20;;;;;;;2.52;81.82;95507.44;5069968;28;20052;-80
2022/01/31 08:59:42;;;;;;;7.75;3.13;;;;;;;2.41;82.97;95516.72;5070570;28;20372;-75
2022/01/31 09:02:13;;;;;;;;;;;;;;;2.27;83.74;95495.91;5070986;28;20139;-76
2022/01/31 09:04:47;;;;;;;6.20;3.17;;;;;;;2.24;84.94;95493.78;5070401;28;19924;-77
2022/01/31 09:07:16;;;;;;;8.27;3.10;;;;;;;2.19;85.39;95477.72;5069758;28;20110;-77
2022/01/31 09:09:43;;;;;;;10.02;3.33;;;;;;;2.17;86.04;95493.31;5070721;28;20051;-78
2022/01/31 09:12:11;;;;;;;8.02;3.17;;;;;;;2.18;86.31;95472.63;5070198;28;20051;-77
2022/01/31 09:14:38;;;;;;;8.90;3.60;;;;;;;2.15;87.00;95471.34;5070299;28;20458;-77
2022/01/31 09:17:05;;;;;;;11.70;3.20;;;;;;;2.15;87.07;95465.97;5070030;28;20052;-77
2022/01/31 09:19:32;;;;;;;8.27;3.65;;;;;;;2.11;87.60;95496.34;5070639;28;20048;-75
2022/01/31 09:21:59;;;;;;;9.00;3.78;;;;;;;2.05;88.11;95452.66;5070480;28;20052;-76
2022/01/31 09:24:27;;;;;;;7.45;2.95;;;;;;;2.05;88.51;95468.75;5069624;28;20044;-76
2022/01/31 09:26:54;;;;;;;7.97;3.30;;;;;;;2.07;88.78;95461.19;5071555;28;20045;-80
2022/01/31 09:29:20;;;;;;;8.70;3.75;;;;;;;2.09;88.51;95469.78;5074676;28;20111;-86
2022/01/31 09:31:47;;;;;;;9.65;3.90;;;;;;;2.12;88.89;95473.78;5071287;28;20049;-79
2022/01/31 09:34:14;;;;;;;8.82;3.58;;;;;;;2.13;88.88;95465.44;5073318;28;20070;-78
2022/01/31 09:36:40;;;;;;;9.02;3.67;;;;;;;2.15;88.46;95462.47;5070377;28;20051;-79
2022/01/31 09:39:08;;;;;;;10.02;3.53;;;;;;;2.16;88.77;95464.06;5070084;28;20499;-79
2022/01/31 09:41:38;;;;;;;7.63;3.50;;;;;;;2.14;88.92;95461.69;5071546;28;20050;-80
2022/01/31 09:44:12;;;;;;;10.25;3.95;;;;;;;2.12;88.98;95453.09;5070071;28;20044;-78
2022/01/31 09:49:16;;;;;;;7.20;3.05;;;;;;;2.07;89.47;95467.38;5070111;28;20443;-78
2022/01/31 09:51:42;;;;;;;6.97;3.28;;;;;;;2.08;89.97;95473.53;5069125;28;20053;-78
2022/01/31 09:54:09;;;;;;;6.60;3.50;;;;;;;2.09;89.98;95464.44;5069304;28;20060;-78
2022/01/31 09:56:40;;;;;;;7.30;3.33;;;;;;;2.08;90.54;95457.44;5070031;28;20407;-77
2022/01/31 09:59:09;;;;;;;10.35;3.20;;;;;;;2.10;90.86;95476.75;5069248;28;20040;-80
2022/01/31 10:01:37;;;;;;;9.10;3.63;;;;;;;2.14;91.22;95469.75;5070247;28;20048;-76
2022/01/31 10:04:07;;;;;;;9.07;3.25;;;;;;;2.14;91.27;95485.03;5068948;28;20036;-78
2022/01/31 10:06:36;;;;;;;6.30;2.83;;;;;;;2.15;91.39;95484.75;5069365;28;20110;-77
2022/01/31 10:09:07;;;;;;;11.90;3.78;;;;;;;2.15;91.49;95470.53;5068582;28;20044;-77
2022/01/31 10:11:41;;;;;;;7.32;3.50;;;;;;;2.17;91.20;95469.16;5070107;28;20044;-75
2022/01/31 10:17:01;;;;;;;10.13;3.45;;;;;;;2.14;91.47;95456.31;5067149;28;20056;-78
2022/01/31 10:19:27;;;;;;;8.45;3.25;;;;;;;2.18;91.85;95481.50;5068363;28;20558;-77
2022/01/31 10:21:56;;;;;;;8.68;2.90;;;;;;;2.18;91.29;95494.91;5069476;28;20060;-77
2022/01/31 10:24:24;;;;;;;5.65;2.67;;;;;;;2.17;91.73;95482.56;5068869;28;20060;-76
2022/01/31 10:26:51;;;;;;;8.50;3.20;;;;;;;2.23;91.97;95486.81;5069376;28;20501;-77
2022/01/31 10:29:21;;;;;;;5.97;2.80;;;;;;;2.22;92.01;95479.84;5068896;28;20430;-77
2022/01/31 10:32:10;;;;;;;5.43;2.33;;;;;;;2.21;92.10;95482.81;5069245;28;20041;-75
2022/01/31 10:34:39;;;;;;;4.88;2.55;;;;;;;2.16;91.51;95491.72;5063632;28;20539;-75
2022/01/31 10:37:10;;;;;;;3.80;2.20;;;;;;;2.19;91.66;95475.03;5068591;28;20123;-79
2022/01/31 10:51:22;;;;;;;3.13;1.70;;;;;;;2.39;90.07;95471.31;5068560;28;20055;-75
2022/01/31 10:53:56;;;;;;;4.32;1.73;;;;;;;2.35;89.59;95452.28;5066939;28;20045;-77
2022/01/31 10:56:23;;;;;;;3.35;1.80;;;;;;;2.53;90.02;95463.34;5067827;28;20781;-74
2022/01/31 10:59:01;;;;;;;3.15;1.60;;;;;;;2.85;88.65;95450.00;5068649;28;20407;-75
2022/01/31 11:01:30;;;;;;;3.20;1.40;;;;;;;2.99;87.59;95460.03;5068370;28;20556;-75
2022/01/31 11:04:03;;;;;;;2.25;1.52;;;;;;;2.99;87.50;95454.66;5067646;28;20051;-77
2022/01/31 11:06:29;;;;;;;3.53;2.05;;;;;;;3.13;87.31;95458.19;5067272;28;20068;-77
2022/01/31 11:09:01;;;;;;;4.07;1.70;;;;;;;3.17;85.76;95461.09;5067643;28;20044;-78
2022/01/31 11:11:28;;;;;;;2.88;1.70;;;;;;;3.11;85.29;95453.13;5065036;28;20040;-80
2022/01/31 11:13:55;;;;;;;4.80;1.70;;;;;;;3.08;85.29;95460.97;5067937;28;20048;-80
2022/01/31 11:16:24;;;;;;;2.92;1.77;;;;;;;3.09;86.04;95452.63;5067611;28;20166;-80
2022/01/31 11:18:56;;;;;;;2.55;1.90;;;;;;;3.20;86.02;95461.34;5067344;28;20048;-79
2022/01/31 11:21:28;;;;;;;4.45;2.08;;;;;;;3.25;85.16;95463.94;5067302;28;20044;-80
2022/01/31 11:24:01;;;;;;;2.28;1.40;;;;;;;3.35;83.93;95463.78;5068189;28;20052;-79
2022/01/31 11:26:35;;;;;;;3.58;1.38;;;;;;;3.40;84.50;95468.28;5067423;28;20118;-79
2022/01/31 11:29:03;;;;;;;4.38;2.08;;;;;;;3.49;82.86;95452.25;5066339;28;20048;-77
2022/01/31 11:31:30;;;;;;;3.00;1.20;;;;;;;3.49;81.38;95446.88;5067705;28;20518;-78
2022/01/31 11:33:59;;;;;;;3.00;1.20;;;;;;;3.51;80.79;95450.88;5067606;28;20044;-79
2022/01/31 11:36:25;;;;;;;3.53;1.30;;;;;;;3.54;80.98;95454.84;5067034;28;20130;-77
2022/01/31 11:38:52;;;;;;;1.85;1.30;;;;;;;3.58;80.86;95439.72;5067638;28;20052;-78
2022/01/31 11:41:19;;;;;;;2.92;1.33;;;;;;;3.59;80.77;95452.09;5067850;28;20056;-80
2022/01/31 11:43:53;;;;;;;2.65;1.45;;;;;;;3.62;79.73;95446.13;5067798;28;20055;-78
2022/01/31 11:46:24;;;;;;;4.28;1.50;;;;;;;3.65;79.77;95445.50;5063903;28;20053;-77
2022/01/31 11:48:52;;;;;;;2.22;1.25;;;;;;;3.62;79.76;95440.72;5046952;28;20060;-76
2022/01/31 11:51:21;;;;;;;3.33;1.17;;;;;;;3.63;78.93;95448.50;5046091;28;20055;-76
2022/01/31 11:53:48;;;;;;;2.95;1.20;;;;;;;3.68;79.77;95444.94;5047155;28;20048;-76
2022/01/31 11:56:18;;;;;;;1.48;1.10;;;;;;;3.69;79.41;95435.75;5046290;28;20052;-76
2022/01/31 11:58:47;;;;;;;2.65;1.08;;;;;;;3.64;77.52;95430.47;5046534;28;20045;-76